createdAt,value
2023-02-13T00:01:54.510Z,32.72
2023-02-13T00:04:21.162Z,35.88
2023-02-13T00:06:50.147Z,40.10
2023-02-13T00:09:16.530Z,36.88
2023-02-13T00:11:42.833Z,38.88
2023-02-13T00:14:09.135Z,36.65
2023-02-13T00:16:35.882Z,34.63
2023-02-13T00:19:02.259Z,36.17
2023-02-13T00:21:28.681Z,37.47
2023-02-13T00:23:55.082Z,32.53
2023-02-13T00:26:22.623Z,34.60
2023-02-13T00:28:49.026Z,32.35
2023-02-13T00:31:17.979Z,33.80
2023-02-13T00:33:44.919Z,33.63
2023-02-13T00:36:14.040Z,37.60
2023-02-13T00:38:42.268Z,32.65
2023-02-13T00:41:09.738Z,34.10
2023-02-13T00:43:36.435Z,32.58
2023-02-13T00:46:03.342Z,37.17
2023-02-13T00:48:32.075Z,35.30
2023-02-13T00:50:59.082Z,40.63
2023-02-13T00:53:26.440Z,33.92
2023-02-13T00:55:53.722Z,33.00
2023-02-13T00:58:20.683Z,33.75
2023-02-13T01:00:47.578Z,37.28
2023-02-13T01:03:15.543Z,35.50
2023-02-13T01:05:42.845Z,35.42
2023-02-13T01:08:10.364Z,36.40
2023-02-13T01:10:41.733Z,35.72
2023-02-13T01:13:09.500Z,35.85
2023-02-13T01:15:36.692Z,36.22
2023-02-13T01:18:03.686Z,38.33
2023-02-13T01:20:30.520Z,33.40
2023-02-13T01:22:57.914Z,40.85
2023-02-13T01:25:24.628Z,32.88
2023-02-13T01:27:51.309Z,36.47
2023-02-13T01:30:18.732Z,35.53
2023-02-13T01:32:46.876Z,39.25
2023-02-13T01:35:14.699Z,33.33
2023-02-13T01:37:42.059Z,37.88
2023-02-13T01:40:11.822Z,34.33
2023-02-13T01:42:38.555Z,32.45
2023-02-13T01:45:25.667Z,31.08
2023-02-13T01:47:59.668Z,34.83
2023-02-13T01:50:36.991Z,38.20
2023-02-13T01:53:12.201Z,37.30
2023-02-13T01:55:52.466Z,33.13
2023-02-13T01:58:22.690Z,34.38
2023-02-13T02:00:50.082Z,36.38
2023-02-13T02:03:22.421Z,32.28
2023-02-13T02:05:51.535Z,30.48
2023-02-13T02:08:19.328Z,34.28
2023-02-13T02:10:46.075Z,35.17
2023-02-13T02:13:17.318Z,35.00
2023-02-13T02:15:43.746Z,36.90
2023-02-13T02:18:15.871Z,34.13
2023-02-13T02:21:10.723Z,30.58
2023-02-13T02:24:05.228Z,33.55
2023-02-13T02:27:05.673Z,33.15
2023-02-13T02:30:03.521Z,30.70
2023-02-13T02:32:51.957Z,30.60
2023-02-13T02:35:47.640Z,28.58
2023-02-13T02:38:41.023Z,26.67
2023-02-13T02:41:37.455Z,23.30
2023-02-13T02:44:22.737Z,20.80
2023-02-13T02:47:22.206Z,18.05
2023-02-13T02:50:02.257Z,18.83
2023-02-13T02:52:43.718Z,16.98
2023-02-13T02:55:24.845Z,19.63
2023-02-13T02:58:32.098Z,19.67
2023-02-13T03:01:20.233Z,17.80
2023-02-13T03:04:06.215Z,12.30
2023-02-13T03:06:40.163Z,15.25
2023-02-13T03:09:32.136Z,13.45
2023-02-13T03:12:17.922Z,11.40
2023-02-13T03:14:45.895Z,10.57
2023-02-13T03:17:34.352Z,9.95
2023-02-13T03:20:19.176Z,10.57
2023-02-13T03:23:20.192Z,12.68
2023-02-13T03:26:33.406Z,12.65
2023-02-13T03:29:30.778Z,9.45
2023-02-13T03:32:14.084Z,8.93
2023-02-13T03:35:15.307Z,8.73
2023-02-13T03:37:56.584Z,8.43
2023-02-13T03:41:07.097Z,9.27
2023-02-13T03:43:44.932Z,8.57
2023-02-13T03:46:12.153Z,8.00
2023-02-13T03:49:00.392Z,7.55
2023-02-13T03:51:56.173Z,8.57
2023-02-13T03:54:51.809Z,9.68
2023-02-13T03:57:39.493Z,7.50
2023-02-13T04:00:10.006Z,7.60
2023-02-13T04:02:41.144Z,7.55
2023-02-13T04:05:17.114Z,7.80
2023-02-13T04:07:43.759Z,6.40
2023-02-13T04:10:14.439Z,6.13
2023-02-13T04:13:02.881Z,5.45
2023-02-13T04:15:43.744Z,6.90
2023-02-13T04:18:17.647Z,7.78
2023-02-13T04:20:44.456Z,6.88
2023-02-13T04:23:12.685Z,7.20
2023-02-13T04:25:42.212Z,7.82
2023-02-13T04:28:08.751Z,6.90
2023-02-13T04:30:35.188Z,6.30
2023-02-13T04:33:01.539Z,7.60
2023-02-13T04:35:28.273Z,7.88
2023-02-13T04:37:54.638Z,7.28
2023-02-13T04:40:21.052Z,8.38
2023-02-13T04:42:49.027Z,6.47
2023-02-13T04:45:15.978Z,6.78
2023-02-13T04:47:42.536Z,6.07
2023-02-13T04:50:09.335Z,6.70
2023-02-13T04:52:36.002Z,8.48
2023-02-13T04:55:02.611Z,5.05
2023-02-13T04:57:29.198Z,6.07
2023-02-13T04:59:55.822Z,6.40
2023-02-13T05:02:22.190Z,7.80
2023-02-13T05:04:48.758Z,6.43
2023-02-13T05:07:15.187Z,6.80
2023-02-13T05:09:41.857Z,5.88
2023-02-13T05:12:08.475Z,5.68
2023-02-13T05:14:34.978Z,6.40
2023-02-13T05:17:01.595Z,5.15
2023-02-13T05:19:28.081Z,6.50
2023-02-13T05:22:13.029Z,5.90
2023-02-13T05:24:39.394Z,7.72
2023-02-13T05:27:05.691Z,7.22
2023-02-13T05:29:32.309Z,7.68
2023-02-13T05:32:00.137Z,5.75
2023-02-13T05:34:28.511Z,7.00
2023-02-13T05:36:55.084Z,8.13
2023-02-13T05:39:22.847Z,7.57
2023-02-13T05:41:49.516Z,7.88
2023-02-13T05:44:16.744Z,7.53
2023-02-13T05:46:45.007Z,8.48
2023-02-13T05:49:13.297Z,7.70
2023-02-13T05:51:40.111Z,6.82
2023-02-13T05:54:06.504Z,8.48
2023-02-13T05:56:32.990Z,8.85
2023-02-13T05:58:59.674Z,7.68
2023-02-13T06:01:26.119Z,9.40
2023-02-13T06:03:52.450Z,10.75
2023-02-13T06:06:18.892Z,10.00
2023-02-13T06:08:45.465Z,9.43
2023-02-13T06:11:12.387Z,9.68
2023-02-13T06:13:40.658Z,11.57
2023-02-13T06:16:11.428Z,12.40
2023-02-13T06:18:37.953Z,10.73
2023-02-13T06:21:04.496Z,10.70
2023-02-13T06:23:31.280Z,10.60
2023-02-13T06:26:02.707Z,11.43
2023-02-13T06:28:29.347Z,11.75
2023-02-13T06:30:56.313Z,12.88
2023-02-13T06:33:23.424Z,13.70
2023-02-13T06:35:50.040Z,11.57
2023-02-13T06:38:19.026Z,13.75
2023-02-13T06:40:49.385Z,12.82
2023-02-13T06:43:16.798Z,13.75
2023-02-13T06:45:43.665Z,13.93
2023-02-13T06:48:10.076Z,13.98
2023-02-13T06:50:36.424Z,12.98
2023-02-13T06:53:03.166Z,13.25
2023-02-13T06:55:29.629Z,13.55
2023-02-13T06:57:55.978Z,12.60
2023-02-13T07:00:26.057Z,13.95
2023-02-13T07:02:52.928Z,13.98
2023-02-13T07:05:19.407Z,13.15
2023-02-13T07:07:45.724Z,13.43
2023-02-13T07:10:14.616Z,14.60
2023-02-13T07:12:41.187Z,13.57
2023-02-13T07:15:08.434Z,13.57
2023-02-13T07:17:35.024Z,13.07
2023-02-13T07:20:01.905Z,13.43
2023-02-13T07:22:28.251Z,12.25
2023-02-13T07:24:54.669Z,12.35
2023-02-13T07:27:21.042Z,12.40
2023-02-13T07:29:47.651Z,11.63
2023-02-13T07:32:14.209Z,12.88
2023-02-13T07:34:52.224Z,14.23
2023-02-13T07:37:28.496Z,13.00
2023-02-13T07:39:54.862Z,12.95
2023-02-13T07:42:21.367Z,15.30
2023-02-13T07:44:47.995Z,11.15
2023-02-13T07:47:14.404Z,14.10
2023-02-13T07:49:40.850Z,10.93
2023-02-13T07:52:07.198Z,14.82
2023-02-13T07:54:33.599Z,14.00
2023-02-13T07:57:00.043Z,12.50
2023-02-13T07:59:26.626Z,11.82
2023-02-13T08:01:53.281Z,18.67
2023-02-13T08:04:19.725Z,15.25
2023-02-13T08:06:46.021Z,13.75
2023-02-13T08:09:39.790Z,14.02
2023-02-13T08:12:08.816Z,13.35
2023-02-13T08:14:35.387Z,12.75
2023-02-13T08:17:02.349Z,14.43
2023-02-13T08:19:28.720Z,15.13
2023-02-13T08:21:55.399Z,16.92
2023-02-13T08:24:22.005Z,15.10
2023-02-13T08:26:48.422Z,15.52
2023-02-13T08:29:14.919Z,14.48
2023-02-13T08:31:41.705Z,12.07
2023-02-13T08:34:08.704Z,14.98
2023-02-13T08:36:35.052Z,15.25
2023-02-13T08:39:01.497Z,14.10
2023-02-13T08:41:27.915Z,12.75
2023-02-13T08:43:54.835Z,13.38
2023-02-13T08:46:21.584Z,14.38
2023-02-13T08:48:48.222Z,12.80
2023-02-13T08:51:14.767Z,15.75
2023-02-13T08:53:42.396Z,14.43
2023-02-13T08:56:09.667Z,15.67
2023-02-13T08:58:36.519Z,17.85
2023-02-13T09:01:07.745Z,15.38
2023-02-13T09:03:35.476Z,16.50
2023-02-13T09:06:03.846Z,16.57
2023-02-13T09:08:30.549Z,15.27
2023-02-13T09:10:59.805Z,17.15
2023-02-13T09:13:26.383Z,15.85
2023-02-13T09:15:52.820Z,17.15
2023-02-13T09:18:20.157Z,15.63
2023-02-13T09:20:46.537Z,14.90
2023-02-13T09:23:12.972Z,13.98
2023-02-13T09:25:39.281Z,15.32
2023-02-13T09:28:05.732Z,13.73
2023-02-13T09:30:32.145Z,14.13
2023-02-13T09:32:58.485Z,15.52
2023-02-13T09:35:24.980Z,13.77
2023-02-13T09:37:51.476Z,12.95
2023-02-13T09:40:37.012Z,13.23
2023-02-13T09:43:37.874Z,13.35
2023-02-13T09:46:13.956Z,12.25
2023-02-13T09:48:44.967Z,11.70
2023-02-13T09:51:17.455Z,13.10
2023-02-13T09:53:52.097Z,11.15
2023-02-13T09:56:31.605Z,11.93
2023-02-13T09:59:23.695Z,11.43
2023-02-13T10:01:52.849Z,8.82
2023-02-13T10:05:10.266Z,9.23
2023-02-13T10:07:58.296Z,9.23
2023-02-13T10:10:33.594Z,8.60
2023-02-13T10:13:12.247Z,9.60
2023-02-13T10:16:12.466Z,8.98
2023-02-13T10:19:30.285Z,10.60
2023-02-13T10:22:05.662Z,6.75
2023-02-13T10:24:39.555Z,9.98
2023-02-13T10:27:21.711Z,8.02
2023-02-13T10:30:07.129Z,9.55
2023-02-13T10:32:45.879Z,8.18
2023-02-13T10:35:27.548Z,9.38
2023-02-13T10:37:58.377Z,9.43
2023-02-13T10:40:32.343Z,6.03
2023-02-13T10:43:04.419Z,7.45
2023-02-13T10:45:57.243Z,6.95
2023-02-13T10:48:35.487Z,9.48
2023-02-13T10:51:18.488Z,7.60
2023-02-13T10:54:03.254Z,9.88
2023-02-13T10:56:48.135Z,6.57
2023-02-13T10:59:43.249Z,7.20
2023-02-13T11:02:15.421Z,8.43
2023-02-13T11:04:43.985Z,6.88
2023-02-13T11:07:17.604Z,8.40
2023-02-13T11:09:47.760Z,7.20
2023-02-13T11:12:29.747Z,6.10
2023-02-13T11:15:05.988Z,5.80
2023-02-13T11:17:36.584Z,6.95
2023-02-13T11:20:08.935Z,6.60
2023-02-13T11:22:39.148Z,8.32
2023-02-13T11:25:26.381Z,7.43
2023-02-13T11:28:08.731Z,9.15
2023-02-13T11:30:37.142Z,13.20
2023-02-13T11:33:29.472Z,7.28
2023-02-13T11:36:30.490Z,11.63
2023-02-13T11:38:58.842Z,10.82
2023-02-13T11:41:26.089Z,8.63
2023-02-13T11:44:01.655Z,8.32
2023-02-13T11:46:49.021Z,6.40
2023-02-13T11:49:20.689Z,10.82
2023-02-13T11:51:50.381Z,7.32
2023-02-13T11:54:34.353Z,8.32
2023-02-13T11:57:05.474Z,6.30
2023-02-13T11:59:40.724Z,6.85
2023-02-13T12:02:18.335Z,11.60
2023-02-13T12:04:45.899Z,7.15
2023-02-13T12:07:30.895Z,10.13
2023-02-13T12:10:02.674Z,13.48
2023-02-13T12:12:35.602Z,7.13
2023-02-13T12:15:17.112Z,7.55
2023-02-13T12:17:46.470Z,6.85
2023-02-13T12:20:15.706Z,7.85
2023-02-13T12:23:01.137Z,7.15
2023-02-13T12:25:33.164Z,10.10
2023-02-13T12:28:13.738Z,7.63
2023-02-13T12:31:01.195Z,7.85
2023-02-13T12:33:58.641Z,9.52
2023-02-13T12:36:36.404Z,9.45
2023-02-13T12:42:03.112Z,7.72
2023-02-13T12:44:38.560Z,7.68
2023-02-13T12:47:31.333Z,10.38
2023-02-13T12:50:37.869Z,8.75
2023-02-13T12:53:29.676Z,9.18
2023-02-13T12:55:56.817Z,11.40
2023-02-13T12:58:44.743Z,15.57
2023-02-13T13:01:32.091Z,9.18
2023-02-13T13:04:21.057Z,7.25
2023-02-13T13:07:24.204Z,9.52
2023-02-13T13:09:56.920Z,7.15
2023-02-13T13:12:36.855Z,8.98
2023-02-13T13:15:31.550Z,7.72
2023-02-13T13:18:19.219Z,8.18
2023-02-13T13:21:12.519Z,7.05
2023-02-13T13:24:05.111Z,10.38
2023-02-13T13:26:46.731Z,8.15
2023-02-13T13:29:21.603Z,7.10
2023-02-13T13:31:57.711Z,8.30
2023-02-13T13:34:25.993Z,10.80
2023-02-13T13:37:06.841Z,10.90
2023-02-13T13:39:52.381Z,8.40
2023-02-13T13:42:31.522Z,7.53
2023-02-13T13:45:06.619Z,9.88
2023-02-13T13:48:06.861Z,9.65
2023-02-13T13:50:39.027Z,7.82
2023-02-13T13:53:15.567Z,8.20
2023-02-13T13:55:48.087Z,7.57
2023-02-13T13:58:24.941Z,11.93
2023-02-13T14:01:30.978Z,8.32
2023-02-13T14:04:00.265Z,8.13
2023-02-13T14:06:48.169Z,8.27
2023-02-13T14:09:26.857Z,9.07
2023-02-13T14:11:55.252Z,8.02
2023-02-13T14:14:27.835Z,8.35
2023-02-13T14:16:59.610Z,8.82
2023-02-13T14:19:32.018Z,9.60
2023-02-13T14:22:20.189Z,9.27
2023-02-13T14:25:07.366Z,9.25
2023-02-13T14:27:38.770Z,12.45
2023-02-13T14:30:22.929Z,9.18
2023-02-13T14:32:49.556Z,9.20
2023-02-13T14:35:29.063Z,9.77
2023-02-13T14:37:59.310Z,9.88
2023-02-13T14:40:30.852Z,9.48
2023-02-13T14:43:19.004Z,12.07
2023-02-13T14:45:54.334Z,10.38
2023-02-13T14:48:25.585Z,11.15
2023-02-13T14:50:54.556Z,9.52
2023-02-13T14:53:29.141Z,11.73
2023-02-13T14:56:14.401Z,11.80
2023-02-13T14:58:49.828Z,11.18
2023-02-13T15:01:28.287Z,11.77
2023-02-13T15:06:29.785Z,8.60
2023-02-13T15:08:59.393Z,12.85
2023-02-13T15:11:43.158Z,12.77
2023-02-13T15:14:22.418Z,11.25
2023-02-13T15:16:54.923Z,11.80
2023-02-13T15:19:23.653Z,11.43
2023-02-13T15:22:01.985Z,9.13
2023-02-13T15:24:36.890Z,13.50
2023-02-13T15:27:06.372Z,10.43
2023-02-13T15:29:47.857Z,10.38
2023-02-13T15:32:21.630Z,11.63
2023-02-13T15:34:48.556Z,10.02
2023-02-13T15:37:27.512Z,9.02
2023-02-13T15:39:53.977Z,10.32
2023-02-13T15:42:20.829Z,10.52
2023-02-13T15:44:50.202Z,10.48
2023-02-13T15:47:23.418Z,9.73
2023-02-13T15:49:50.446Z,13.52
2023-02-13T15:52:31.959Z,8.82
2023-02-13T15:54:58.967Z,10.23
2023-02-13T15:57:27.166Z,9.75
2023-02-13T15:59:55.948Z,9.90
2023-02-13T16:02:29.541Z,9.50
2023-02-13T16:04:56.414Z,11.02
2023-02-13T16:07:22.783Z,14.07
2023-02-13T16:09:49.196Z,9.68
2023-02-13T16:12:23.001Z,11.43
2023-02-13T16:15:00.133Z,8.95
2023-02-13T16:17:31.142Z,10.52
2023-02-13T16:20:01.917Z,8.50
2023-02-13T16:22:39.338Z,10.27
2023-02-13T16:25:28.616Z,8.50
2023-02-13T16:28:01.187Z,12.18
2023-02-13T16:30:27.608Z,9.10
2023-02-13T16:33:15.134Z,9.32
2023-02-13T16:35:49.130Z,8.40
2023-02-13T16:38:39.926Z,12.60
2023-02-13T16:41:22.068Z,10.30
2023-02-13T16:43:53.952Z,13.32
2023-02-13T16:46:32.523Z,11.15
2023-02-13T16:51:52.460Z,10.73
2023-02-13T16:54:26.691Z,13.65
2023-02-13T16:57:22.972Z,10.02
2023-02-13T17:00:01.789Z,10.40
2023-02-13T17:02:30.866Z,11.55
2023-02-13T17:05:10.140Z,12.07
2023-02-13T17:07:45.169Z,13.13
2023-02-13T17:10:33.821Z,9.57
2023-02-13T17:13:13.777Z,12.15
2023-02-13T17:15:45.753Z,14.63
2023-02-13T17:18:12.392Z,11.43
2023-02-13T17:20:41.795Z,13.90
2023-02-13T17:23:25.978Z,11.32
2023-02-13T17:25:54.045Z,13.18
2023-02-13T17:28:26.739Z,12.75
2023-02-13T17:30:57.265Z,14.98
2023-02-13T17:33:25.743Z,14.80
2023-02-13T17:35:53.216Z,15.98
2023-02-13T17:38:20.811Z,12.55
2023-02-13T17:40:47.616Z,16.13
2023-02-13T17:43:17.033Z,15.18
2023-02-13T17:45:44.245Z,12.98
2023-02-13T17:48:10.835Z,13.77
2023-02-13T17:50:38.141Z,17.15
2023-02-13T17:53:08.132Z,16.02
2023-02-13T17:55:35.323Z,18.45
2023-02-13T17:58:02.632Z,15.75
2023-02-13T18:00:32.520Z,15.13
2023-02-13T18:03:00.372Z,15.93
2023-02-13T18:05:28.275Z,14.20
2023-02-13T18:07:55.215Z,15.82
2023-02-13T18:10:26.749Z,14.68
2023-02-13T18:12:54.434Z,16.30
2023-02-13T18:15:21.365Z,14.83
2023-02-13T18:17:48.351Z,13.80
2023-02-13T18:20:17.825Z,19.77
2023-02-13T18:22:44.641Z,16.60
2023-02-13T18:25:11.687Z,18.02
2023-02-13T18:27:38.293Z,15.60
2023-02-13T18:30:05.624Z,15.20
2023-02-13T18:32:32.338Z,14.73
2023-02-13T18:34:58.896Z,17.65
2023-02-13T18:37:28.568Z,14.07
2023-02-13T18:39:55.797Z,22.30
2023-02-13T18:42:22.485Z,16.90
2023-02-13T18:44:48.942Z,17.42
2023-02-13T18:47:15.316Z,14.93
2023-02-13T18:49:43.257Z,18.63
2023-02-13T18:52:10.955Z,18.98
2023-02-13T18:54:37.446Z,14.97
2023-02-13T18:57:04.192Z,18.10
2023-02-13T18:59:30.538Z,17.55
2023-02-13T19:01:56.987Z,14.88
2023-02-13T19:04:25.140Z,15.40
2023-02-13T19:06:51.650Z,14.20
2023-02-13T19:09:18.205Z,15.93
2023-02-13T19:11:44.845Z,20.30
2023-02-13T19:14:13.107Z,18.92
2023-02-13T19:16:40.239Z,20.98
2023-02-13T19:19:08.553Z,20.63
2023-02-13T19:21:37.300Z,25.10
2023-02-13T19:24:05.786Z,20.52
2023-02-13T19:28:59.169Z,17.20
2023-02-13T19:31:29.121Z,17.48
2023-02-13T19:33:56.961Z,21.02
2023-02-13T19:36:25.840Z,20.25
2023-02-13T19:39:00.091Z,21.73
2023-02-13T19:41:27.142Z,23.52
2023-02-13T19:43:54.767Z,21.88
2023-02-13T19:46:25.866Z,19.77
2023-02-13T19:48:52.652Z,18.02
2023-02-13T19:51:22.349Z,18.58
2023-02-13T19:53:48.911Z,22.52
2023-02-13T19:56:15.290Z,26.27
2023-02-13T19:58:43.039Z,27.58
2023-02-13T20:01:15.041Z,24.40
2023-02-13T20:03:41.933Z,25.35
2023-02-13T20:06:13.966Z,27.30
2023-02-13T20:08:42.961Z,27.85
2023-02-13T20:11:13.732Z,26.08
2023-02-13T20:13:40.532Z,32.08
2023-02-13T20:16:09.410Z,26.75
2023-02-13T20:18:37.243Z,27.58
2023-02-13T20:21:07.202Z,25.17
2023-02-13T20:23:34.692Z,22.40
2023-02-13T20:26:09.067Z,22.23
2023-02-13T20:28:35.567Z,19.50
2023-02-13T20:31:03.769Z,21.05
2023-02-13T20:33:30.840Z,24.98
2023-02-13T20:35:57.247Z,22.45
2023-02-13T20:38:23.658Z,21.88
2023-02-13T20:40:50.132Z,22.88
2023-02-13T20:43:16.691Z,22.77
2023-02-13T20:45:43.161Z,21.08
2023-02-13T20:48:09.744Z,20.17
2023-02-13T20:50:36.078Z,19.60
2023-02-13T20:53:02.452Z,20.20
2023-02-13T20:55:28.751Z,18.65
2023-02-13T20:57:55.180Z,25.77
2023-02-13T21:00:21.752Z,22.80
2023-02-13T21:02:48.380Z,18.88
2023-02-13T21:05:15.174Z,21.75
2023-02-13T21:07:41.587Z,17.98
2023-02-13T21:10:08.286Z,19.92
2023-02-13T21:12:34.950Z,21.45
2023-02-13T21:15:01.427Z,19.95
2023-02-13T21:17:27.801Z,24.83
2023-02-13T21:19:54.404Z,25.77
2023-02-13T21:22:20.860Z,19.38
2023-02-13T21:24:49.818Z,22.92
2023-02-13T21:27:16.234Z,23.85
2023-02-13T21:29:42.632Z,26.77
2023-02-13T21:32:09.142Z,21.13
2023-02-13T21:34:36.310Z,20.13
2023-02-13T21:37:02.731Z,21.90
2023-02-13T21:39:29.311Z,21.52
2023-02-13T21:41:55.671Z,23.40
2023-02-13T21:44:22.299Z,21.02
2023-02-13T21:46:48.702Z,22.90
2023-02-13T21:49:17.813Z,22.55
2023-02-13T21:51:45.177Z,22.05
2023-02-13T21:54:12.118Z,24.60
2023-02-13T21:56:40.754Z,24.05
2023-02-13T21:59:07.754Z,20.55
2023-02-13T22:01:36.631Z,22.77
2023-02-13T22:04:06.704Z,23.40
2023-02-13T22:06:35.595Z,24.77
2023-02-13T22:09:05.831Z,21.48
2023-02-13T22:11:32.929Z,24.27
2023-02-13T22:14:02.602Z,24.65
2023-02-13T22:16:31.153Z,29.60
2023-02-13T22:21:26.445Z,23.30
2023-02-13T22:26:39.581Z,31.35
2023-02-13T22:29:08.429Z,26.90
2023-02-13T22:31:35.944Z,26.23
2023-02-13T22:34:05.023Z,26.70
2023-02-13T22:36:34.254Z,22.55
2023-02-13T22:39:00.822Z,23.05
2023-02-13T22:41:27.618Z,25.55
2023-02-13T22:43:54.472Z,24.90
2023-02-13T22:46:30.070Z,27.40
2023-02-13T22:48:56.619Z,26.90
2023-02-13T22:51:26.155Z,23.52
2023-02-13T22:53:54.632Z,22.60
2023-02-13T22:58:47.899Z,23.48
2023-02-13T23:01:18.123Z,22.85
2023-02-13T23:03:44.706Z,27.35
2023-02-13T23:06:12.570Z,31.45
2023-02-13T23:08:39.066Z,26.95
2023-02-13T23:11:32.263Z,24.45
2023-02-13T23:13:59.636Z,28.67
2023-02-13T23:16:26.683Z,21.38
2023-02-13T23:18:54.824Z,23.20
2023-02-13T23:21:21.439Z,26.02
2023-02-13T23:23:48.339Z,27.42
2023-02-13T23:26:16.156Z,26.75
2023-02-13T23:28:42.731Z,24.98
2023-02-13T23:31:09.271Z,26.95
2023-02-13T23:33:35.738Z,28.48
2023-02-13T23:36:02.241Z,29.23
2023-02-13T23:38:29.597Z,24.42
2023-02-13T23:40:56.051Z,24.08
2023-02-13T23:43:22.651Z,22.92
2023-02-13T23:45:49.747Z,22.15
2023-02-13T23:48:16.133Z,26.67
2023-02-13T23:50:42.493Z,25.73
2023-02-13T23:53:09.109Z,22.75
2023-02-13T23:55:35.744Z,25.17
2023-02-13T23:58:02.309Z,26.48
